createdAt,value
2019-02-20T00:01:27.737Z,3.30
2019-02-20T00:03:55.038Z,3.30
2019-02-20T00:06:22.259Z,3.30
2019-02-20T00:08:49.491Z,3.20
2019-02-20T00:11:16.767Z,3.20
2019-02-20T00:13:44.111Z,3.10
2019-02-20T00:16:11.344Z,3.10
2019-02-20T00:18:38.689Z,2.90
2019-02-20T00:21:09.001Z,3.10
2019-02-20T00:23:37.002Z,3.00
2019-02-20T00:26:04.296Z,3.00
2019-02-20T00:28:31.668Z,3.10
2019-02-20T00:30:58.938Z,3.00
2019-02-20T00:33:26.182Z,3.00
2019-02-20T00:35:53.419Z,3.10
2019-02-20T00:38:20.690Z,3.20
2019-02-20T00:40:48.159Z,3.10
2019-02-20T00:43:15.504Z,3.10
2019-02-20T00:46:01.193Z,3.10
2019-02-20T00:48:46.497Z,3.10
2019-02-20T00:51:33.235Z,3.10
2019-02-20T00:54:02.498Z,2.90
2019-02-20T00:56:29.835Z,2.70
2019-02-20T00:58:57.200Z,2.80
2019-02-20T01:01:25.047Z,2.90
2019-02-20T01:03:52.871Z,2.80
2019-02-20T01:06:20.216Z,2.80
2019-02-20T01:08:47.479Z,2.80
2019-02-20T01:11:14.703Z,2.80
2019-02-20T01:14:01.556Z,2.80
2019-02-20T01:16:28.897Z,2.80
2019-02-20T01:18:56.127Z,2.80
2019-02-20T01:21:23.393Z,2.90
2019-02-20T01:23:50.745Z,2.70
2019-02-20T01:26:18.097Z,2.90
2019-02-20T01:28:45.353Z,2.90
2019-02-20T01:31:12.707Z,2.70
2019-02-20T01:33:40.019Z,2.80
2019-02-20T01:36:07.303Z,2.80
2019-02-20T01:38:34.648Z,2.80
2019-02-20T01:41:01.899Z,2.60
2019-02-20T01:43:29.192Z,2.70
2019-02-20T01:45:56.455Z,2.60
2019-02-20T01:48:23.682Z,2.70
2019-02-20T01:50:50.995Z,2.60
2019-02-20T01:53:18.292Z,2.50
2019-02-20T01:55:45.693Z,2.50
2019-02-20T01:58:13.019Z,2.50
2019-02-20T02:00:40.278Z,2.50
2019-02-20T02:03:07.616Z,2.40
2019-02-20T02:05:34.878Z,2.40
2019-02-20T02:08:02.255Z,2.50
2019-02-20T02:10:29.519Z,2.50
2019-02-20T02:12:56.814Z,2.50
2019-02-20T02:15:24.085Z,2.60
2019-02-20T02:17:51.373Z,2.50
2019-02-20T02:20:18.624Z,2.60
2019-02-20T02:22:45.855Z,2.50
2019-02-20T02:25:13.140Z,2.50
2019-02-20T02:27:40.420Z,2.50
2019-02-20T02:30:08.930Z,2.50
2019-02-20T02:32:36.451Z,2.50
2019-02-20T02:35:03.783Z,2.50
2019-02-20T02:37:31.005Z,2.40
2019-02-20T02:53:53.207Z,2.30
2019-02-20T02:56:20.457Z,2.30
2019-02-20T02:58:47.799Z,2.10
2019-02-20T03:01:15.088Z,2.10
2019-02-20T03:03:42.444Z,1.90
2019-02-20T03:06:09.692Z,2.00
2019-02-20T03:08:37.083Z,2.10
2019-02-20T03:11:04.312Z,2.00
2019-02-20T03:13:31.567Z,2.10
2019-02-20T03:15:58.803Z,2.10
2019-02-20T03:18:26.058Z,2.00
2019-02-20T03:20:53.419Z,2.00
2019-02-20T03:23:20.679Z,2.20
2019-02-20T03:25:47.932Z,2.30
2019-02-20T03:28:15.180Z,2.20
2019-02-20T03:30:42.456Z,2.20
2019-02-20T03:33:09.724Z,2.00
2019-02-20T03:35:37.040Z,2.10
2019-02-20T03:38:04.316Z,2.10
2019-02-20T03:40:31.605Z,2.00
2019-02-20T03:42:58.951Z,2.00
2019-02-20T03:45:26.324Z,2.00
2019-02-20T03:47:53.569Z,2.00
2019-02-20T03:50:20.865Z,2.00
2019-02-20T03:52:48.251Z,1.80
2019-02-20T03:55:15.607Z,1.90
2019-02-20T03:57:43.003Z,1.90
2019-02-20T04:00:10.262Z,1.90
2019-02-20T04:02:37.600Z,1.80
2019-02-20T04:05:04.877Z,1.90
2019-02-20T04:07:32.207Z,1.90
2019-02-20T04:09:59.448Z,1.90
2019-02-20T04:12:26.804Z,1.90
2019-02-20T04:14:54.198Z,2.00
2019-02-20T04:17:21.531Z,1.90
2019-02-20T04:19:48.758Z,2.00
2019-02-20T04:22:16.078Z,1.80
2019-02-20T04:24:43.426Z,1.80
2019-02-20T04:27:10.780Z,1.80
2019-02-20T04:29:38.039Z,1.90
2019-02-20T04:32:05.268Z,1.70
2019-02-20T04:34:32.651Z,1.60
2019-02-20T04:36:59.887Z,1.60
2019-02-20T04:39:27.108Z,1.50
2019-02-20T04:41:54.366Z,1.40
2019-02-20T04:44:21.805Z,1.40
2019-02-20T04:46:49.030Z,1.50
2019-02-20T04:49:16.402Z,1.40
2019-02-20T04:51:43.739Z,1.60
2019-02-20T04:54:13.708Z,1.60
2019-02-20T04:56:40.512Z,1.70
2019-02-20T04:59:08.241Z,1.60
2019-02-20T05:01:35.947Z,1.70
2019-02-20T05:04:03.588Z,1.60
2019-02-20T05:06:31.266Z,1.60
2019-02-20T05:08:58.994Z,1.40
2019-02-20T05:11:26.292Z,1.60
2019-02-20T05:13:53.570Z,1.70
2019-02-20T05:16:20.882Z,1.60
2019-02-20T05:18:48.227Z,1.70
2019-02-20T05:21:15.472Z,1.50
2019-02-20T05:23:43.026Z,1.40
2019-02-20T05:26:10.525Z,1.50
2019-02-20T05:28:37.915Z,1.40
2019-02-20T05:31:05.143Z,1.60
2019-02-20T05:33:32.440Z,1.50
2019-02-20T05:35:59.777Z,1.50
2019-02-20T05:38:27.136Z,1.60
2019-02-20T05:40:54.450Z,1.50
2019-02-20T05:43:21.701Z,1.60
2019-02-20T05:45:48.944Z,1.50
2019-02-20T05:48:16.197Z,1.60
2019-02-20T05:50:43.565Z,1.50
2019-02-20T05:53:10.810Z,1.60
2019-02-20T05:55:38.060Z,1.60
2019-02-20T05:58:05.314Z,1.60
2019-02-20T06:00:32.531Z,1.60
2019-02-20T06:02:59.756Z,1.70
2019-02-20T06:05:27.203Z,1.90
2019-02-20T06:07:54.530Z,1.80
2019-02-20T06:10:21.814Z,1.80
2019-02-20T06:12:49.144Z,1.70
2019-02-20T06:15:16.395Z,1.70
2019-02-20T06:17:43.744Z,1.70
2019-02-20T06:20:11.101Z,1.70
2019-02-20T06:22:38.490Z,1.70
2019-02-20T06:25:05.718Z,1.50
2019-02-20T06:27:32.993Z,1.60
2019-02-20T06:30:00.383Z,1.60
2019-02-20T06:32:27.716Z,1.50
2019-02-20T06:34:55.108Z,1.40
2019-02-20T06:37:22.479Z,1.50
2019-02-20T06:40:09.291Z,1.60
2019-02-20T06:42:36.643Z,1.70
2019-02-20T06:45:04.455Z,1.50
2019-02-20T06:47:31.659Z,1.60
2019-02-20T06:50:01.050Z,1.70
2019-02-20T06:52:28.109Z,1.60
2019-02-20T06:54:55.668Z,1.60
2019-02-20T06:57:22.995Z,1.80
2019-02-20T06:59:50.381Z,1.90
2019-02-20T07:02:17.759Z,1.90
2019-02-20T07:05:21.801Z,2.10
2019-02-20T07:08:55.408Z,2.10
2019-02-20T07:11:51.202Z,2.20
2019-02-20T07:15:15.612Z,2.10
2019-02-20T07:18:02.180Z,2.30
2019-02-20T07:20:56.515Z,2.20
2019-02-20T07:23:34.667Z,2.10
2019-02-20T07:26:33.607Z,2.20
2019-02-20T07:29:45.247Z,2.20
2019-02-20T07:32:16.718Z,2.30
2019-02-20T07:34:44.362Z,2.00
2019-02-20T07:37:13.366Z,2.50
2019-02-20T07:39:41.129Z,2.40
2019-02-20T07:42:08.417Z,2.60
2019-02-20T07:44:35.701Z,2.60
2019-02-20T07:47:03.068Z,2.70
2019-02-20T07:49:30.463Z,2.70
2019-02-20T07:51:57.716Z,2.70
2019-02-20T07:54:25.001Z,2.80
2019-02-20T07:56:52.334Z,3.10
2019-02-20T07:59:19.676Z,3.20
2019-02-20T08:01:46.946Z,3.40
2019-02-20T08:04:14.179Z,3.30
2019-02-20T08:06:41.419Z,3.30
2019-02-20T08:09:08.680Z,3.20
2019-02-20T08:11:35.979Z,3.30
2019-02-20T08:14:03.347Z,3.40
2019-02-20T08:16:30.568Z,3.20
2019-02-20T08:18:57.796Z,3.40
2019-02-20T08:21:25.088Z,3.40
2019-02-20T08:23:52.380Z,3.60
2019-02-20T08:26:20.222Z,3.60
2019-02-20T08:28:47.816Z,3.60
2019-02-20T08:31:15.155Z,3.50
2019-02-20T08:33:43.319Z,3.60
2019-02-20T08:36:10.699Z,3.80
2019-02-20T08:38:38.086Z,3.90
2019-02-20T08:41:05.397Z,3.90
2019-02-20T08:43:52.532Z,4.10
2019-02-20T08:46:20.886Z,3.90
2019-02-20T08:48:48.217Z,3.80
2019-02-20T08:51:15.662Z,3.60
2019-02-20T08:53:42.987Z,3.70
2019-02-20T08:56:10.245Z,3.90
2019-02-20T08:58:37.523Z,4.40
2019-02-20T09:01:04.783Z,4.50
2019-02-20T09:03:32.049Z,5.00
2019-02-20T09:05:59.416Z,5.10
2019-02-20T09:08:26.693Z,5.40
2019-02-20T09:10:53.952Z,6.00
2019-02-20T09:13:21.222Z,6.10
2019-02-20T09:15:48.460Z,6.30
2019-02-20T09:18:15.723Z,6.30
2019-02-20T09:20:43.000Z,6.50
2019-02-20T09:23:10.247Z,6.90
2019-02-20T09:25:41.581Z,7.60
2019-02-20T09:28:06.696Z,7.80
2019-02-20T09:30:33.950Z,7.80
2019-02-20T09:33:01.964Z,8.30
2019-02-20T09:35:29.223Z,8.60
2019-02-20T09:37:56.610Z,8.80
2019-02-20T09:40:23.850Z,8.80
2019-02-20T09:42:51.086Z,9.00
2019-02-20T09:45:18.348Z,9.20
2019-02-20T09:47:45.604Z,9.50
2019-02-20T09:50:12.890Z,9.90
2019-02-20T09:52:40.182Z,10.20
2019-02-20T09:55:08.803Z,10.20
2019-02-20T09:57:36.155Z,10.00
2019-02-20T10:00:05.378Z,10.40
2019-02-20T10:02:32.619Z,10.80
2019-02-20T10:04:59.916Z,10.50
2019-02-20T10:07:27.163Z,10.50
2019-02-20T10:09:54.485Z,10.40
2019-02-20T10:12:21.732Z,10.80
2019-02-20T10:14:49.021Z,11.30
2019-02-20T10:17:16.336Z,11.70
2019-02-20T10:19:43.571Z,12.60
2019-02-20T10:22:11.056Z,13.70
2019-02-20T10:24:38.327Z,14.30
2019-02-20T10:27:05.671Z,14.70
2019-02-20T10:29:32.952Z,14.30
2019-02-20T10:32:00.226Z,13.80
2019-02-20T10:34:27.579Z,13.60
2019-02-20T10:36:54.907Z,13.80
2019-02-20T10:39:22.260Z,14.50
2019-02-20T10:41:49.571Z,15.10
2019-02-20T10:44:16.827Z,15.50
2019-02-20T10:46:44.085Z,16.50
2019-02-20T10:49:11.336Z,17.00
2019-02-20T10:51:38.721Z,17.50
2019-02-20T10:54:06.047Z,18.00
2019-02-20T10:56:34.516Z,18.00
2019-02-20T10:59:01.893Z,18.00
2019-02-20T11:01:29.366Z,18.40
2019-02-20T11:03:56.718Z,19.10
2019-02-20T11:06:23.955Z,19.20
2019-02-20T11:08:51.221Z,17.80
2019-02-20T11:11:18.567Z,17.70
2019-02-20T11:13:49.487Z,17.40
2019-02-20T11:16:22.714Z,18.60
2019-02-20T11:18:50.041Z,19.40
2019-02-20T11:21:17.597Z,20.10
2019-02-20T11:23:45.214Z,21.00
2019-02-20T11:26:18.208Z,21.60
2019-02-20T11:28:43.216Z,20.90
2019-02-20T11:31:10.622Z,21.70
2019-02-20T11:33:41.761Z,20.70
2019-02-20T11:36:09.152Z,20.80
2019-02-20T11:38:36.447Z,20.90
2019-02-20T11:41:03.709Z,20.10
2019-02-20T11:43:31.104Z,19.30
2019-02-20T11:45:58.733Z,17.80
2019-02-20T11:48:26.519Z,16.90
2019-02-20T11:50:53.900Z,18.10
2019-02-20T11:53:21.268Z,19.00
2019-02-20T11:55:48.577Z,18.90
2019-02-20T11:58:17.125Z,19.40
2019-02-20T12:00:44.517Z,20.20
2019-02-20T12:03:11.747Z,19.80
2019-02-20T12:05:43.332Z,19.00
2019-02-20T12:08:10.754Z,18.60
2019-02-20T12:10:38.682Z,18.80
2019-02-20T12:13:05.964Z,19.70
2019-02-20T12:15:33.309Z,20.50
2019-02-20T12:18:00.723Z,20.80
2019-02-20T12:20:27.956Z,20.10
2019-02-20T12:22:55.203Z,21.10
2019-02-20T12:25:22.477Z,20.60
2019-02-20T12:27:50.096Z,22.10
2019-02-20T12:30:17.410Z,22.70
2019-02-20T12:32:44.697Z,22.60
2019-02-20T12:35:11.929Z,21.70
2019-02-20T12:37:39.176Z,20.00
2019-02-20T12:40:06.574Z,19.30
2019-02-20T12:42:33.832Z,18.80
2019-02-20T12:45:01.632Z,19.30
2019-02-20T12:47:28.964Z,20.10
2019-02-20T12:49:56.291Z,20.10
2019-02-20T12:52:23.699Z,19.90
2019-02-20T12:54:50.996Z,20.60
2019-02-20T12:57:18.400Z,21.30
2019-02-20T12:59:45.681Z,21.00
2019-02-20T13:02:13.014Z,21.50
2019-02-20T13:04:40.419Z,22.70
2019-02-20T13:07:07.652Z,22.70
2019-02-20T13:09:35.023Z,22.30
2019-02-20T13:12:02.319Z,22.20
2019-02-20T13:14:29.667Z,23.60
2019-02-20T13:16:57.111Z,24.30
2019-02-20T13:19:24.384Z,22.30
2019-02-20T13:21:51.683Z,20.50
2019-02-20T13:24:19.037Z,19.20
2019-02-20T13:26:52.932Z,18.20
2019-02-20T13:29:15.443Z,17.80
2019-02-20T13:31:42.717Z,17.10
2019-02-20T13:34:10.811Z,17.00
2019-02-20T13:36:39.705Z,16.40
2019-02-20T13:39:07.056Z,15.60
2019-02-20T13:41:34.539Z,15.50
2019-02-20T13:44:01.804Z,14.90
2019-02-20T13:46:29.108Z,15.10
2019-02-20T13:48:56.472Z,15.20
2019-02-20T13:51:23.870Z,15.10
2019-02-20T13:53:51.523Z,15.10
2019-02-20T13:56:18.823Z,14.90
2019-02-20T13:58:49.383Z,15.10
2019-02-20T14:01:16.720Z,15.40
2019-02-20T14:03:44.057Z,15.20
2019-02-20T14:06:11.419Z,14.80
2019-02-20T14:08:38.775Z,14.50
2019-02-20T14:11:06.526Z,14.70
2019-02-20T14:13:33.876Z,15.10
2019-02-20T14:16:01.121Z,15.80
2019-02-20T14:18:28.456Z,16.20
2019-02-20T14:20:55.723Z,16.40
2019-02-20T14:23:22.979Z,16.30
2019-02-20T14:25:50.318Z,16.10
2019-02-20T14:28:17.768Z,15.70
2019-02-20T14:30:45.322Z,15.70
2019-02-20T14:33:12.690Z,15.40
2019-02-20T14:35:40.020Z,14.90
2019-02-20T14:38:07.357Z,14.90
2019-02-20T14:40:34.715Z,14.80
2019-02-20T14:43:01.944Z,14.60
2019-02-20T14:45:29.385Z,14.50
2019-02-20T14:47:56.864Z,14.50
2019-02-20T14:50:24.187Z,14.40
2019-02-20T14:52:51.567Z,14.30
2019-02-20T14:55:20.129Z,14.10
2019-02-20T14:57:47.476Z,14.10
2019-02-20T15:00:15.015Z,14.10
2019-02-20T15:02:42.381Z,14.00
2019-02-20T15:05:12.257Z,14.00
2019-02-20T15:07:39.766Z,13.90
2019-02-20T15:10:07.179Z,13.70
2019-02-20T15:12:34.419Z,13.80
2019-02-20T15:15:10.334Z,13.60
2019-02-20T15:17:31.653Z,13.50
2019-02-20T15:19:59.044Z,13.30
2019-02-20T15:22:26.392Z,13.30
2019-02-20T15:24:54.101Z,13.10
2019-02-20T15:27:28.504Z,13.20
2019-02-20T15:29:50.642Z,13.00
2019-02-20T15:32:17.973Z,13.10
2019-02-20T15:34:45.325Z,12.90
2019-02-20T15:37:12.693Z,12.80
2019-02-20T15:39:40.213Z,12.60
2019-02-20T15:42:08.503Z,12.30
2019-02-20T15:44:35.823Z,12.20
2019-02-20T15:47:03.240Z,12.10
2019-02-20T15:49:33.251Z,12.00
2019-02-20T15:52:02.590Z,12.00
2019-02-20T15:54:29.955Z,11.80
2019-02-20T15:56:57.315Z,11.70
2019-02-20T15:59:24.952Z,11.70
2019-02-20T16:01:53.518Z,11.60
2019-02-20T16:04:21.347Z,11.50
2019-02-20T16:06:48.693Z,11.40
2019-02-20T16:09:16.093Z,11.30
2019-02-20T16:11:51.271Z,11.10
2019-02-20T16:14:18.620Z,11.20
2019-02-20T16:16:46.215Z,11.20
2019-02-20T16:19:13.472Z,11.00
2019-02-20T16:21:40.894Z,10.90
2019-02-20T16:24:11.198Z,10.90
2019-02-20T16:26:38.572Z,10.80
2019-02-20T16:29:05.916Z,10.90
2019-02-20T16:31:33.513Z,10.80
2019-02-20T16:34:01.353Z,10.80
2019-02-20T16:36:28.907Z,10.70
2019-02-20T16:38:56.329Z,10.60
2019-02-20T16:41:36.006Z,10.60
2019-02-20T16:44:05.228Z,10.50
2019-02-20T16:46:32.556Z,10.40
2019-02-20T16:49:00.017Z,10.40
2019-02-20T16:51:27.379Z,10.30
2019-02-20T16:53:54.777Z,10.20
2019-02-20T16:56:22.141Z,10.20
2019-02-20T16:58:49.540Z,10.10
2019-02-20T17:01:16.805Z,10.00
2019-02-20T17:03:44.135Z,9.70
2019-02-20T17:06:12.877Z,9.80
2019-02-20T17:08:40.601Z,9.70
2019-02-20T17:11:07.995Z,9.60
2019-02-20T17:13:35.331Z,9.60
2019-02-20T17:16:03.365Z,9.30
2019-02-20T17:18:30.655Z,9.40
2019-02-20T17:20:58.064Z,9.30
2019-02-20T17:23:25.376Z,9.20
2019-02-20T17:25:53.168Z,9.20
2019-02-20T17:28:20.632Z,9.00
2019-02-20T17:30:48.005Z,9.00
2019-02-20T17:33:15.372Z,9.00
2019-02-20T17:35:42.712Z,8.80
2019-02-20T17:38:10.167Z,8.80
2019-02-20T17:40:39.977Z,8.70
2019-02-20T17:43:07.870Z,8.60
2019-02-20T17:45:35.205Z,8.60
2019-02-20T17:48:02.549Z,8.50
2019-02-20T17:50:29.948Z,8.50
2019-02-20T17:52:57.352Z,8.50
2019-02-20T17:55:24.706Z,8.40
2019-02-20T17:57:52.135Z,8.30
2019-02-20T18:00:22.183Z,8.30
2019-02-20T18:02:49.442Z,8.30
2019-02-20T18:05:17.053Z,8.20
2019-02-20T18:07:49.728Z,8.10
2019-02-20T18:10:13.851Z,8.00
2019-02-20T18:12:41.098Z,8.10
2019-02-20T18:15:08.367Z,8.10
2019-02-20T18:17:35.623Z,8.00
2019-02-20T18:20:03.026Z,8.10
2019-02-20T18:22:30.367Z,8.10
2019-02-20T18:24:57.631Z,8.10
2019-02-20T18:27:24.880Z,8.10
2019-02-20T18:29:52.168Z,8.00
2019-02-20T18:32:19.528Z,8.10
2019-02-20T18:34:46.884Z,8.00
2019-02-20T18:37:14.172Z,8.00
2019-02-20T18:39:41.564Z,8.00
2019-02-20T18:42:08.854Z,8.00
2019-02-20T18:44:36.209Z,7.90
2019-02-20T18:47:03.551Z,7.90
2019-02-20T18:49:30.901Z,7.80
2019-02-20T18:51:58.262Z,7.80
2019-02-20T18:54:25.545Z,7.80
2019-02-20T18:56:52.919Z,7.80
2019-02-20T18:59:20.216Z,7.60
2019-02-20T19:01:47.619Z,7.60
2019-02-20T19:04:14.965Z,7.60
2019-02-20T19:06:42.217Z,7.50
2019-02-20T19:09:29.279Z,7.40
2019-02-20T19:12:20.277Z,7.40
2019-02-20T19:15:26.872Z,7.40
2019-02-20T19:18:21.482Z,7.30
2019-02-20T19:21:32.123Z,7.20
2019-02-20T19:24:33.197Z,7.30
2019-02-20T19:27:32.593Z,7.20
2019-02-20T19:30:43.476Z,7.20
2019-02-20T19:34:11.096Z,7.10
2019-02-20T19:37:07.896Z,7.10
2019-02-20T19:40:00.237Z,7.00
2019-02-20T19:42:57.913Z,7.00
2019-02-20T19:46:19.190Z,7.00
2019-02-20T19:49:23.649Z,6.90
2019-02-20T19:52:09.575Z,6.90
2019-02-20T19:54:45.088Z,6.90
2019-02-20T19:57:39.243Z,6.80
2019-02-20T20:00:21.369Z,6.80
2019-02-20T20:03:26.692Z,6.60
2019-02-20T20:06:28.215Z,6.70
2019-02-20T20:09:36.063Z,6.70
2019-02-20T20:12:59.674Z,6.60
2019-02-20T20:15:46.909Z,6.60
2019-02-20T20:19:00.987Z,6.50
2019-02-20T20:22:06.075Z,6.50
2019-02-20T20:24:56.527Z,6.50
2019-02-20T20:27:50.445Z,6.40
2019-02-20T20:30:29.785Z,6.40
2019-02-20T20:33:26.136Z,6.40
2019-02-20T20:36:32.571Z,6.30
2019-02-20T20:39:33.553Z,6.30
2019-02-20T20:42:37.680Z,6.20
2019-02-20T20:45:18.719Z,6.20
2019-02-20T20:48:41.165Z,6.10
2019-02-20T20:52:04.315Z,6.00
2019-02-20T20:55:28.811Z,6.00
2019-02-20T20:58:29.163Z,5.80
2019-02-20T21:01:36.897Z,5.90
2019-02-20T21:04:48.655Z,5.80
2019-02-20T21:07:45.936Z,5.80
2019-02-20T21:11:10.139Z,5.70
2019-02-20T21:14:09.740Z,5.60
2019-02-20T21:17:19.264Z,5.60
2019-02-20T21:20:19.233Z,5.60
2019-02-20T21:23:27.152Z,5.60
2019-02-20T21:26:43.604Z,5.50
2019-02-20T21:29:36.981Z,5.50
2019-02-20T21:32:41.163Z,5.50
2019-02-20T21:35:50.420Z,5.50
2019-02-20T21:38:46.677Z,5.50
2019-02-20T21:41:54.785Z,5.50
2019-02-20T21:45:00.660Z,5.30
2019-02-20T21:48:18.641Z,5.30
2019-02-20T21:51:46.048Z,5.30
2019-02-20T21:55:01.224Z,5.30
2019-02-20T21:57:44.790Z,5.20
2019-02-20T22:00:40.487Z,5.20
2019-02-20T22:03:44.208Z,5.20
2019-02-20T22:06:44.843Z,5.10
2019-02-20T22:10:01.124Z,5.20
2019-02-20T22:12:53.457Z,5.20
2019-02-20T22:15:50.816Z,5.10
2019-02-20T22:19:02.779Z,5.00
2019-02-20T22:22:12.797Z,5.00
2019-02-20T22:25:17.267Z,5.00
2019-02-20T22:28:17.843Z,5.00
2019-02-20T22:30:58.306Z,5.00
2019-02-20T22:33:45.773Z,5.00
2019-02-20T22:36:57.011Z,5.00
2019-02-20T22:40:06.371Z,5.00
2019-02-20T22:43:03.187Z,5.00
2019-02-20T22:46:16.433Z,5.00
2019-02-20T22:49:26.251Z,5.10
2019-02-20T22:52:21.308Z,5.00
2019-02-20T22:55:27.594Z,4.90
2019-02-20T22:57:59.660Z,4.80
2019-02-20T23:01:21.263Z,4.80
2019-02-20T23:04:11.744Z,4.80
2019-02-20T23:07:10.447Z,4.70
2019-02-20T23:10:02.906Z,4.80
2019-02-20T23:13:26.964Z,4.70
2019-02-20T23:15:54.204Z,4.70
2019-02-20T23:18:21.455Z,4.80
2019-02-20T23:20:48.750Z,4.70
2019-02-20T23:23:16.056Z,4.60
2019-02-20T23:25:43.352Z,4.60
2019-02-20T23:28:10.615Z,4.60
2019-02-20T23:30:37.915Z,4.60
2019-02-20T23:33:05.237Z,4.40
2019-02-20T23:35:32.501Z,4.20
2019-02-20T23:37:59.757Z,4.20
2019-02-20T23:40:27.799Z,4.40
2019-02-20T23:42:55.411Z,4.20
2019-02-20T23:45:22.724Z,4.20
2019-02-20T23:47:50.011Z,4.20
2019-02-20T23:50:17.254Z,4.30
2019-02-20T23:52:44.518Z,4.30
2019-02-20T23:55:11.821Z,4.30
2019-02-20T23:57:39.096Z,4.30
